Time;durP1;ratioP1;P1;durP2;ratioP2;P2;SDS_P1;SDS_P2;PMS_P1;PMS_P2;Temp;Humidity;BMP_temperature;BMP_pressure;BME280_temperature;BME280_humidity;BME280_pressure;Samples;Min_cycle;Max_cycle;Signal;HPM_P1;HPM_P2
2023/06/01 00:02:16;;;;;;;9.40;2.90;;;;;;;;;;107012;1274;22972;-81
2023/06/01 00:04:32;;;;;;;10.60;3.40;;;;;;;;;;106842;1279;25526;-85
2023/06/01 00:07:07;;;;;;;11.20;3.30;;;;;;;;;;106612;1273;25224;-84
2023/06/01 00:09:54;;;;;;;10.00;3.00;;;;;;;;;;106792;1278;22585;-81
2023/06/01 00:12:32;;;;;;;10.60;3.10;;;;;;;;;;106853;1279;24199;-86
2023/06/01 00:15:28;;;;;;;10.90;3.30;;;;;;;;;;106782;1279;25279;-80
2023/06/01 00:18:19;;;;;;;9.20;3.10;;;;;;;;;;106677;1262;22523;-80
2023/06/01 00:21:04;;;;;;;8.00;2.90;;;;;;;;;;106678;1279;25360;-84
2023/06/01 00:24:01;;;;;;;8.10;2.80;;;;;;;;;;106708;1278;22781;-84
2023/06/01 00:26:38;;;;;;;10.40;2.50;;;;;;;;;;106822;1279;22483;-79
2023/06/01 00:30:16;;;;;;;10.00;2.80;;;;;;;;;;106811;1262;22520;-81
2023/06/01 00:32:43;;;;;;;13.00;3.60;;;;;;;;;;106804;1279;22516;-85
2023/06/01 00:35:56;;;;;;;8.30;3.20;;;;;;;;;;106789;1279;23912;-85
2023/06/01 00:38:15;;;;;;;9.00;3.10;;;;;;;;;;106578;1273;24242;-83
2023/06/01 00:41:19;;;;;;;9.80;3.40;;;;;;;;;;106997;1274;22521;-83
2023/06/01 00:44:31;;;;;;;10.60;3.40;;;;;;;;;;107129;1274;24240;-81
2023/06/01 00:47:52;;;;;;;7.70;3.60;;;;;;;;;;107195;1274;22537;-85
2023/06/01 00:50:42;;;;;;;12.60;3.90;;;;;;;;;;107195;1274;23867;-81
2023/06/01 00:53:33;;;;;;;9.60;3.70;;;;;;;;;;106997;1274;24336;-81
2023/06/01 00:56:00;;;;;;;11.60;3.60;;;;;;;;;;107150;1274;21709;-84
2023/06/01 00:58:55;;;;;;;;;;;;;;;;;;;;;
2023/06/01 01:01:47;;;;;;;12.60;3.40;;;;;;;;;;107202;1274;22528;-85
2023/06/01 01:05:09;;;;;;;10.40;2.80;;;;;;;;;;107232;1274;25545;-80
2023/06/01 01:07:52;;;;;;;10.70;3.20;;;;;;;;;;107216;1274;24255;-84
2023/06/01 01:10:56;;;;;;;9.00;2.90;;;;;;;;;;107154;1257;25275;-81
2023/06/01 01:14:09;;;;;;;9.70;3.10;;;;;;;;;;107214;1274;25383;-82
2023/06/01 01:16:59;;;;;;;8.50;2.50;;;;;;;;;;107116;1274;25334;-82
2023/06/01 01:19:50;;;;;;;;;;;;;;;;;;;;;
2023/06/01 01:23:06;;;;;;;7.50;2.50;;;;;;;;;;107210;1274;22575;-82
2023/06/01 01:26:15;;;;;;;11.80;2.50;;;;;;;;;;107210;1274;25195;-84
2023/06/01 01:30:02;;;;;;;9.20;3.10;;;;;;;;;;107170;1251;24674;-81
2023/06/01 01:32:08;;;;;;;10.90;3.10;;;;;;;;;;107182;1274;22599;-86
2023/06/01 01:35:07;;;;;;;8.20;2.70;;;;;;;;;;107158;1274;24355;-86
2023/06/01 01:38:18;;;;;;;10.00;2.60;;;;;;;;;;107224;1274;22525;-85
2023/06/01 01:41:07;;;;;;;9.00;2.60;;;;;;;;;;106840;1277;22521;-81
2023/06/01 01:44:03;;;;;;;8.80;2.90;;;;;;;;;;106849;1279;22561;-80
2023/06/01 01:46:59;;;;;;;12.50;2.70;;;;;;;;;;106769;1279;22525;-85
2023/06/01 01:49:32;;;;;;;9.90;3.00;;;;;;;;;;106825;1256;22531;-80
2023/06/01 01:52:35;;;;;;;7.50;2.60;;;;;;;;;;106521;1280;24220;-82
2023/06/01 01:55:25;;;;;;;;;;;;;;;;;;;;;
2023/06/01 01:58:21;;;;;;;8.60;2.80;;;;;;;;;;106724;1279;26483;-82
2023/06/01 02:01:28;;;;;;;8.80;3.30;;;;;;;;;;106409;1275;22557;-81
2023/06/01 02:04:48;;;;;;;13.50;3.60;;;;;;;;;;106418;1285;22534;-80
2023/06/01 02:07:45;;;;;;;11.00;3.50;;;;;;;;;;106447;1285;22524;-85
2023/06/01 02:11:02;;;;;;;;;;;;;;;;;;;;;
2023/06/01 02:13:47;;;;;;;;;;;;;;;;;;;;;
2023/06/01 02:16:45;;;;;;;;;;;;;;;;;;;;;
2023/06/01 02:19:58;;;;;;;16.20;4.30;;;;;;;;;;106052;1289;23829;-85
2023/06/01 02:23:12;;;;;;;17.70;4.20;;;;;;;;;;106045;1281;22554;-81
2023/06/01 02:26:57;;;;;;;20.20;4.00;;;;;;;;;;106093;1287;24206;-81
2023/06/01 02:29:40;;;;;;;13.20;4.20;;;;;;;;;;106103;1288;22543;-82
2023/06/01 02:33:01;;;;;;;16.80;4.20;;;;;;;;;;106025;1281;25374;-84
2023/06/01 02:35:50;;;;;;;17.50;4.40;;;;;;;;;;105949;1288;22575;-84
2023/06/01 02:38:33;;;;;;;30.20;5.10;;;;;;;;;;106242;1283;22563;-84
2023/06/01 02:42:18;;;;;;;24.30;4.30;;;;;;;;;;106557;1268;22535;-80
2023/06/01 02:44:50;;;;;;;32.10;5.20;;;;;;;;;;106451;1282;22526;-87
2023/06/01 02:47:40;;;;;;;50.50;5.60;;;;;;;;;;106474;1282;25274;-83
2023/06/01 02:50:29;;;;;;;37.70;5.70;;;;;;;;;;106681;1275;22517;-82
2023/06/01 02:53:32;;;;;;;33.50;5.10;;;;;;;;;;107137;1257;22528;-85
2023/06/01 02:56:13;;;;;;;30.60;5.00;;;;;;;;;;107182;1275;24211;-86
2023/06/01 02:59:15;;;;;;;32.80;4.60;;;;;;;;;;107128;1275;25214;-81
2023/06/01 03:02:24;;;;;;;21.80;4.10;;;;;;;;;;107086;1258;22525;-87
2023/06/01 03:05:31;;;;;;;17.70;4.30;;;;;;;;;;107148;1275;25535;-81
2023/06/01 03:08:50;;;;;;;11.90;4.20;;;;;;;;;;107119;1275;22544;-81
2023/06/01 03:11:51;;;;;;;17.80;4.20;;;;;;;;;;107150;1252;22524;-80
2023/06/01 03:14:46;;;;;;;12.50;3.20;;;;;;;;;;107186;1275;24320;-84
2023/06/01 03:17:34;;;;;;;9.10;2.80;;;;;;;;;;107132;1275;22521;-84
2023/06/01 03:20:24;;;;;;;;;;;;;;;;;;;;;
2023/06/01 03:22:48;;;;;;;20.40;4.40;;;;;;;;;;107379;1275;22552;-86
2023/06/01 03:25:45;;;;;;;24.30;4.70;;;;;;;;;;107204;1260;22489;-80
2023/06/01 03:28:26;;;;;;;17.20;3.80;;;;;;;;;;107299;1272;22530;-81
2023/06/01 03:31:02;;;;;;;27.40;4.60;;;;;;;;;;107243;1273;22526;-85
2023/06/01 03:33:39;;;;;;;22.70;4.50;;;;;;;;;;106962;1259;25393;-80
2023/06/01 03:36:47;;;;;;;;;;;;;;;;;;;;;
2023/06/01 03:39:21;;;;;;;14.50;4.10;;;;;;;;;;107200;1275;25418;-84
2023/06/01 03:42:16;;;;;;;19.40;4.20;;;;;;;;;;107076;1275;22611;-79
2023/06/01 03:45:18;;;;;;;11.40;3.90;;;;;;;;;;107007;1259;23463;-86
2023/06/01 03:48:16;;;;;;;15.30;3.90;;;;;;;;;;107218;1275;22618;-83
2023/06/01 03:51:18;;;;;;;13.40;3.80;;;;;;;;;;106997;1275;22520;-86
2023/06/01 03:53:52;;;;;;;13.90;4.00;;;;;;;;;;106989;1275;25207;-79
2023/06/01 03:57:29;;;;;;;;;;;;;;;;;;;;;
2023/06/01 04:00:17;;;;;;;13.80;3.90;;;;;;;;;;107171;1275;25137;-85
2023/06/01 04:02:57;;;;;;;19.50;5.00;;;;;;;;;;107102;1275;22515;-83
2023/06/01 04:05:58;;;;;;;;;;;;;;;;;;;;;
2023/06/01 04:08:30;;;;;;;16.70;4.20;;;;;;;;;;106977;1275;22532;-87
2023/06/01 04:10:57;;;;;;;13.60;4.20;;;;;;;;;;107159;1275;25277;-81
2023/06/01 04:13:33;;;;;;;11.90;3.70;;;;;;;;;;106951;1275;22583;-86
2023/06/01 04:16:26;;;;;;;12.30;3.90;;;;;;;;;;107146;1257;24595;-83
2023/06/01 04:19:09;;;;;;;17.00;4.40;;;;;;;;;;106930;1275;25420;-86
2023/06/01 04:21:43;;;;;;;11.30;4.00;;;;;;;;;;107120;1275;24240;-79
2023/06/01 04:24:37;;;;;;;16.00;4.20;;;;;;;;;;107128;1275;25219;-82
2023/06/01 04:27:24;;;;;;;12.20;3.90;;;;;;;;;;106920;1275;23931;-84
2023/06/01 04:30:55;;;;;;;10.70;3.70;;;;;;;;;;106956;1275;22520;-83
2023/06/01 04:33:11;;;;;;;12.80;4.40;;;;;;;;;;107031;1275;25437;-80
2023/06/01 04:36:02;;;;;;;;;;;;;;;;;;;;;
2023/06/01 04:38:35;;;;;;;17.10;4.70;;;;;;;;;;107115;1275;22555;-79
2023/06/01 04:41:26;;;;;;;18.80;5.20;;;;;;;;;;107075;1275;22664;-85
2023/06/01 04:44:08;;;;;;;18.80;5.40;;;;;;;;;;107136;1274;22530;-81
2023/06/01 04:46:57;;;;;;;;;;;;;;;;;;;;;
2023/06/01 04:49:36;;;;;;;18.50;4.40;;;;;;;;;;107120;1275;25529;-86
2023/06/01 04:52:26;;;;;;;;;;;;;;;;;;;;;
2023/06/01 04:55:01;;;;;;;13.70;4.20;;;;;;;;;;107210;1255;22524;-83
2023/06/01 04:58:01;;;;;;;16.70;4.90;;;;;;;;;;107205;1256;22525;-82
2023/06/01 05:01:08;;;;;;;16.60;4.40;;;;;;;;;;107138;1275;24350;-80
2023/06/01 05:03:57;;;;;;;14.40;3.90;;;;;;;;;;106984;1275;23862;-79
2023/06/01 05:06:28;;;;;;;17.40;4.20;;;;;;;;;;106871;1257;22616;-83
2023/06/01 05:09:40;;;;;;;17.80;4.40;;;;;;;;;;107192;1274;23898;-81
2023/06/01 05:12:29;;;;;;;13.70;3.50;;;;;;;;;;107204;1272;25497;-83
2023/06/01 05:15:05;;;;;;;10.90;3.10;;;;;;;;;;107081;1275;22571;-84
2023/06/01 05:17:38;;;;;;;14.70;3.20;;;;;;;;;;106971;1275;22488;-83
2023/06/01 05:20:20;;;;;;;11.20;2.60;;;;;;;;;;107015;1275;22518;-79
2023/06/01 05:23:08;;;;;;;;;;;;;;;;;;;;;
2023/06/01 05:25:41;;;;;;;10.70;2.90;;;;;;;;;;106984;1275;22624;-80
2023/06/01 05:28:30;;;;;;;12.80;3.10;;;;;;;;;;106898;1255;22527;-82
2023/06/01 05:31:14;;;;;;;13.30;2.90;;;;;;;;;;107267;1275;24325;-81
2023/06/01 05:33:57;;;;;;;18.70;3.10;;;;;;;;;;107158;1275;22525;-81
2023/06/01 05:36:38;;;;;;;11.60;2.70;;;;;;;;;;107145;1254;22769;-83
2023/06/01 05:39:31;;;;;;;;;;;;;;;;;;;;;
2023/06/01 05:42:09;;;;;;;6.70;2.40;;;;;;;;;;107078;1275;22532;-78
2023/06/01 05:44:39;;;;;;;6.60;2.30;;;;;;;;;;107085;1272;25258;-79
2023/06/01 05:47:22;;;;;;;;;;;;;;;;;;;;;
2023/06/01 05:49:58;;;;;;;7.70;2.20;;;;;;;;;;106892;1262;23017;-79
2023/06/01 05:52:28;;;;;;;8.50;2.00;;;;;;;;;;107144;1275;22524;-85
2023/06/01 05:54:57;;;;;;;7.90;2.20;;;;;;;;;;106979;1267;22520;-81
2023/06/01 05:57:27;;;;;;;7.60;2.30;;;;;;;;;;107114;1256;25223;-79
2023/06/01 06:00:15;;;;;;;7.90;2.00;;;;;;;;;;106837;1267;22545;-79
2023/06/01 06:06:22;;;;;;;13.00;2.60;;;;;;;;;;107031;1267;24048;-80
2023/06/01 06:08:52;;;;;;;15.70;3.20;;;;;;;;;;107079;1273;22517;-82
2023/06/01 06:14:46;;;;;;;17.00;2.80;;;;;;;;;;106983;1275;24243;-79
2023/06/01 06:17:13;;;;;;;18.20;2.90;;;;;;;;;;107182;1253;23898;-80
2023/06/01 06:19:58;;;;;;;14.40;2.60;;;;;;;;;;106960;1276;24200;-80
2023/06/01 06:23:08;;;;;;;16.50;2.90;;;;;;;;;;107031;1275;22524;-80
2023/06/01 06:26:22;;;;;;;8.30;2.20;;;;;;;;;;106951;1276;22696;-82
2023/06/01 06:29:30;;;;;;;6.20;2.30;;;;;;;;;;107069;1256;23400;-82
2023/06/01 06:32:45;;;;;;;11.80;2.40;;;;;;;;;;107123;1267;22779;-83
2023/06/01 06:35:12;;;;;;;13.00;2.70;;;;;;;;;;107052;1267;24306;-81
2023/06/01 06:37:48;;;;;;;9.10;2.60;;;;;;;;;;107130;1264;22569;-81
2023/06/01 06:40:35;;;;;;;10.80;2.60;;;;;;;;;;107024;1275;24182;-82
2023/06/01 06:43:02;;;;;;;11.00;2.60;;;;;;;;;;106974;1276;22604;-83
2023/06/01 06:45:37;;;;;;;10.20;2.30;;;;;;;;;;107049;1275;22542;-78
2023/06/01 06:48:05;;;;;;;10.70;2.70;;;;;;;;;;106955;1251;24350;-80
2023/06/01 06:50:36;;;;;;;10.90;2.40;;;;;;;;;;106948;1275;25324;-82
2023/06/01 06:53:03;;;;;;;13.60;2.90;;;;;;;;;;106959;1275;22616;-83
2023/06/01 06:55:48;;;;;;;12.20;2.90;;;;;;;;;;107172;1267;22528;-81
2023/06/01 06:58:42;;;;;;;11.40;2.40;;;;;;;;;;107184;1275;22825;-80
2023/06/01 07:01:08;;;;;;;7.40;2.10;;;;;;;;;;107080;1276;22559;-80
2023/06/01 07:03:38;;;;;;;8.10;2.80;;;;;;;;;;107406;1269;22531;-80
2023/06/01 07:06:05;;;;;;;7.80;2.00;;;;;;;;;;107041;1276;22751;-86
2023/06/01 07:08:40;;;;;;;6.80;1.90;;;;;;;;;;107080;1254;22520;-80
2023/06/01 07:11:23;;;;;;;5.30;1.90;;;;;;;;;;107066;1275;22541;-82
2023/06/01 07:13:53;;;;;;;5.70;1.80;;;;;;;;;;107037;1275;26596;-82
2023/06/01 07:16:25;;;;;;;7.70;2.20;;;;;;;;;;106915;1275;22597;-82
2023/06/01 07:19:04;;;;;;;7.30;1.90;;;;;;;;;;106978;1257;24215;-83
2023/06/01 07:21:31;;;;;;;9.90;2.10;;;;;;;;;;106784;1275;22634;-84
2023/06/01 07:24:06;;;;;;;6.40;1.80;;;;;;;;;;106912;1275;22520;-87
2023/06/01 07:27:02;;;;;;;6.50;1.60;;;;;;;;;;107102;1272;25325;-83
2023/06/01 07:29:32;;;;;;;14.00;1.90;;;;;;;;;;106992;1258;22531;-81
2023/06/01 07:32:02;;;;;;;7.20;1.80;;;;;;;;;;106962;1276;25405;-84
2023/06/01 07:34:28;;;;;;;8.20;1.70;;;;;;;;;;106928;1270;23868;-83
2023/06/01 07:37:01;;;;;;;7.50;1.60;;;;;;;;;;106846;1278;25361;-84
2023/06/01 07:39:37;;;;;;;6.30;1.50;;;;;;;;;;106660;1260;24360;-80
2023/06/01 07:42:07;;;;;;;7.10;1.60;;;;;;;;;;106987;1276;25315;-83
2023/06/01 07:44:55;;;;;;;;;;;;;;;;;;;;;
2023/06/01 07:47:31;;;;;;;6.10;1.70;;;;;;;;;;107104;1276;25373;-83
2023/06/01 07:49:58;;;;;;;5.10;1.70;;;;;;;;;;106949;1275;24259;-81
2023/06/01 07:52:27;;;;;;;5.20;1.50;;;;;;;;;;106951;1275;22515;-83
2023/06/01 07:55:09;;;;;;;4.70;1.60;;;;;;;;;;107108;1275;22518;-85
2023/06/01 07:57:42;;;;;;;6.40;1.70;;;;;;;;;;107121;1275;22657;-83
2023/06/01 08:00:17;;;;;;;7.90;2.90;;;;;;;;;;106956;1257;25275;-81
2023/06/01 08:02:46;;;;;;;8.00;2.40;;;;;;;;;;106968;1275;22644;-81
2023/06/01 08:05:31;;;;;;;9.00;3.10;;;;;;;;;;106938;1275;25398;-81
2023/06/01 08:07:58;;;;;;;9.70;2.40;;;;;;;;;;107112;1275;22530;-84
2023/06/01 08:10:28;;;;;;;7.60;1.90;;;;;;;;;;106921;1259;22528;-84
2023/06/01 08:12:57;;;;;;;7.10;1.90;;;;;;;;;;107080;1275;22676;-80
2023/06/01 08:15:28;;;;;;;8.80;2.20;;;;;;;;;;107135;1275;25295;-85
2023/06/01 08:17:56;;;;;;;5.00;1.70;;;;;;;;;;106970;1275;22609;-85
2023/06/01 08:20:31;;;;;;;6.80;2.00;;;;;;;;;;107133;1257;22624;-80
2023/06/01 08:23:25;;;;;;;3.80;1.50;;;;;;;;;;106930;1275;24244;-88
2023/06/01 08:25:52;;;;;;;4.70;1.60;;;;;;;;;;106980;1276;22518;-86
2023/06/01 08:28:19;;;;;;;5.90;1.50;;;;;;;;;;107116;1275;22525;-78
2023/06/01 08:30:46;;;;;;;5.20;1.60;;;;;;;;;;106904;1257;22519;-79
2023/06/01 08:33:21;;;;;;;6.20;1.90;;;;;;;;;;107157;1274;22527;-83
2023/06/01 08:35:48;;;;;;;6.50;1.70;;;;;;;;;;106994;1275;25500;-79
2023/06/01 08:38:15;;;;;;;4.00;1.40;;;;;;;;;;106950;1275;25390;-78
2023/06/01 08:40:49;;;;;;;6.40;1.60;;;;;;;;;;107108;1275;24196;-85
2023/06/01 08:43:20;;;;;;;7.20;1.60;;;;;;;;;;106847;1275;22517;-85
2023/06/01 08:45:48;;;;;;;5.20;1.30;;;;;;;;;;107157;1275;23860;-82
2023/06/01 08:48:20;;;;;;;4.80;1.40;;;;;;;;;;107119;1275;22488;-84
2023/06/01 08:50:58;;;;;;;6.50;1.50;;;;;;;;;;106979;1258;22619;-84
2023/06/01 08:53:26;;;;;;;11.10;1.60;;;;;;;;;;107131;1275;22555;-79
2023/06/01 08:55:54;;;;;;;5.90;1.50;;;;;;;;;;107050;1275;25446;-84
2023/06/01 08:58:33;;;;;;;5.70;1.80;;;;;;;;;;106968;1275;25231;-78
2023/06/01 09:01:00;;;;;;;5.20;1.70;;;;;;;;;;107100;1256;25236;-79
2023/06/01 09:03:38;;;;;;;4.80;1.60;;;;;;;;;;106951;1275;25268;-84
2023/06/01 09:06:05;;;;;;;7.00;1.40;;;;;;;;;;106966;1275;22523;-82
2023/06/01 09:08:35;;;;;;;7.70;1.90;;;;;;;;;;107071;1275;24196;-82
2023/06/01 09:11:11;;;;;;;5.20;1.50;;;;;;;;;;106926;1258;24341;-82
2023/06/01 09:13:39;;;;;;;7.70;1.60;;;;;;;;;;106973;1275;22524;-82
2023/06/01 09:16:10;;;;;;;4.60;1.50;;;;;;;;;;107107;1275;25286;-84
2023/06/01 09:18:37;;;;;;;4.10;1.60;;;;;;;;;;106929;1275;25224;-79
2023/06/01 09:21:11;;;;;;;6.00;1.80;;;;;;;;;;106855;1253;22545;-82
2023/06/01 09:23:48;;;;;;;6.50;1.70;;;;;;;;;;107088;1275;22526;-83
2023/06/01 09:26:28;;;;;;;6.40;2.00;;;;;;;;;;106931;1275;24347;-81
2023/06/01 09:28:58;;;;;;;5.60;2.00;;;;;;;;;;107155;1275;22524;-82
2023/06/01 09:31:44;;;;;;;7.30;1.40;;;;;;;;;;107109;1264;24969;-82
2023/06/01 09:34:15;;;;;;;4.80;1.60;;;;;;;;;;106947;1253;22531;-81
2023/06/01 09:36:42;;;;;;;3.80;1.60;;;;;;;;;;107065;1252;22529;-79
2023/06/01 09:39:10;;;;;;;5.10;1.50;;;;;;;;;;107010;1268;25358;-78
2023/06/01 09:41:46;;;;;;;6.90;1.50;;;;;;;;;;107039;1253;22596;-85
2023/06/01 09:44:31;;;;;;;7.80;1.80;;;;;;;;;;107143;1275;22526;-84
2023/06/01 09:47:12;;;;;;;5.60;1.70;;;;;;;;;;107094;1275;24191;-79
2023/06/01 09:50:03;;;;;;;5.50;1.70;;;;;;;;;;106905;1275;25266;-79
2023/06/01 09:52:30;;;;;;;8.00;1.80;;;;;;;;;;106932;1256;23112;-78
2023/06/01 09:55:05;;;;;;;5.70;1.70;;;;;;;;;;106878;1275;23901;-84
2023/06/01 09:57:52;;;;;;;25.30;2.50;;;;;;;;;;106925;1275;22513;-80
2023/06/01 10:00:42;;;;;;;8.40;1.80;;;;;;;;;;107055;1275;22604;-82
2023/06/01 10:03:15;;;;;;;7.10;1.80;;;;;;;;;;106882;1259;22666;-78
2023/06/01 10:06:02;;;;;;;5.40;1.70;;;;;;;;;;106904;1275;24334;-82
2023/06/01 10:08:42;;;;;;;6.50;1.80;;;;;;;;;;107172;1275;22528;-77
2023/06/01 10:11:55;;;;;;;5.90;1.60;;;;;;;;;;106885;1275;22539;-78
2023/06/01 10:14:08;;;;;;;6.40;1.90;;;;;;;;;;106909;1264;22520;-83
2023/06/01 10:16:35;;;;;;;4.60;1.70;;;;;;;;;;107075;1275;24214;-79
2023/06/01 10:19:11;;;;;;;7.10;1.70;;;;;;;;;;106906;1275;23407;-78
2023/06/01 10:21:55;;;;;;;;;;;;;;;;;;;;;
2023/06/01 10:24:33;;;;;;;8.70;1.90;;;;;;;;;;107071;1257;22523;-77
2023/06/01 10:27:32;;;;;;;8.40;1.60;;;;;;;;;;106951;1275;22648;-79
2023/06/01 10:29:59;;;;;;;5.80;2.00;;;;;;;;;;107047;1275;25261;-78
2023/06/01 10:32:36;;;;;;;4.50;1.80;;;;;;;;;;106909;1253;22489;-82
2023/06/01 10:35:04;;;;;;;5.00;1.70;;;;;;;;;;106941;1275;22527;-81
2023/06/01 10:37:54;;;;;;;5.40;1.80;;;;;;;;;;106893;1275;24371;-77
2023/06/01 10:40:18;;;;;;;4.50;1.30;;;;;;;;;;104548;1275;22612;-77
2023/06/01 10:42:57;;;;;;;5.50;2.00;;;;;;;;;;106872;1263;22536;-78
2023/06/01 10:45:54;;;;;;;7.00;1.80;;;;;;;;;;106909;1275;22598;-81
2023/06/01 10:48:41;;;;;;;8.10;1.90;;;;;;;;;;106981;1275;25348;-78
2023/06/01 10:51:21;;;;;;;6.60;1.70;;;;;;;;;;106855;1275;22520;-78
2023/06/01 10:54:29;;;;;;;6.40;1.60;;;;;;;;;;106950;1257;25328;-83
2023/06/01 10:57:20;;;;;;;7.70;1.90;;;;;;;;;;106914;1275;22602;-81
2023/06/01 11:00:35;;;;;;;5.80;1.70;;;;;;;;;;107130;1275;22479;-82
2023/06/01 11:03:12;;;;;;;6.50;1.80;;;;;;;;;;106893;1253;22621;-80
2023/06/01 11:05:49;;;;;;;6.20;1.70;;;;;;;;;;106973;1275;22570;-83
2023/06/01 11:08:19;;;;;;;6.70;1.80;;;;;;;;;;107223;1275;22512;-76
2023/06/01 11:13:21;;;;;;;7.90;2.00;;;;;;;;;;106950;1253;22531;-83
2023/06/01 11:16:24;;;;;;;5.80;2.00;;;;;;;;;;106899;1275;22518;-82
2023/06/01 11:19:02;;;;;;;4.80;1.80;;;;;;;;;;107066;1275;22518;-77
2023/06/01 11:21:35;;;;;;;6.80;2.00;;;;;;;;;;107026;1275;25509;-78
2023/06/01 11:24:15;;;;;;;4.90;1.70;;;;;;;;;;106949;1257;22518;-78
2023/06/01 11:26:44;;;;;;;5.70;1.80;;;;;;;;;;107035;1275;25230;-81
2023/06/01 11:29:47;;;;;;;5.70;1.90;;;;;;;;;;106964;1275;22741;-82
2023/06/01 11:32:21;;;;;;;5.10;1.70;;;;;;;;;;106875;1275;24199;-80
2023/06/01 11:34:51;;;;;;;6.40;1.70;;;;;;;;;;107098;1275;25216;-80
2023/06/01 11:37:20;;;;;;;5.30;1.80;;;;;;;;;;106973;1253;22522;-78
2023/06/01 11:40:04;;;;;;;6.70;1.90;;;;;;;;;;106897;1275;25214;-82
2023/06/01 11:42:35;;;;;;;6.30;2.00;;;;;;;;;;107003;1275;22741;-78
2023/06/01 11:45:04;;;;;;;7.20;1.40;;;;;;;;;;107071;1256;24264;-84
2023/06/01 11:47:37;;;;;;;7.40;1.90;;;;;;;;;;106938;1273;25447;-78
2023/06/01 11:50:05;;;;;;;6.70;1.70;;;;;;;;;;107104;1275;22532;-84
2023/06/01 11:52:32;;;;;;;7.80;1.80;;;;;;;;;;107044;1275;22642;-78
2023/06/01 11:55:02;;;;;;;4.30;1.60;;;;;;;;;;106908;1258;24189;-82
2023/06/01 11:57:29;;;;;;;6.70;1.70;;;;;;;;;;106955;1275;22542;-83
2023/06/01 11:59:59;;;;;;;4.60;1.70;;;;;;;;;;106956;1275;22524;-82
2023/06/01 12:02:29;;;;;;;7.10;1.90;;;;;;;;;;106977;1275;22517;-79
2023/06/01 12:05:06;;;;;;;4.80;1.70;;;;;;;;;;107126;1256;25278;-78
2023/06/01 12:07:50;;;;;;;5.00;1.80;;;;;;;;;;107142;1275;23284;-81
2023/06/01 12:10:21;;;;;;;6.90;1.70;;;;;;;;;;106849;1265;22633;-80
2023/06/01 12:12:50;;;;;;;4.70;1.90;;;;;;;;;;106913;1275;24315;-77
2023/06/01 12:15:18;;;;;;;8.10;2.00;;;;;;;;;;107029;1256;22643;-82
2023/06/01 12:17:51;;;;;;;5.00;1.60;;;;;;;;;;107001;1275;22475;-83
2023/06/01 12:20:30;;;;;;;5.80;1.60;;;;;;;;;;107079;1275;22635;-81
2023/06/01 12:22:58;;;;;;;6.60;2.00;;;;;;;;;;106808;1275;22523;-78
2023/06/01 12:25:34;;;;;;;3.90;1.40;;;;;;;;;;106766;1275;22618;-79
2023/06/01 12:28:02;;;;;;;4.40;1.70;;;;;;;;;;106877;1275;22673;-76
2023/06/01 12:30:31;;;;;;;6.30;1.90;;;;;;;;;;107011;1275;24253;-85
2023/06/01 12:32:59;;;;;;;6.90;1.90;;;;;;;;;;106866;1275;22536;-80
2023/06/01 12:35:49;;;;;;;7.30;1.70;;;;;;;;;;106896;1259;24362;-77
2023/06/01 12:38:16;;;;;;;5.80;1.50;;;;;;;;;;107176;1275;22535;-82
2023/06/01 12:41:11;;;;;;;5.70;1.80;;;;;;;;;;106924;1259;22577;-80
2023/06/01 12:43:39;;;;;;;6.80;1.60;;;;;;;;;;106995;1272;22490;-82
2023/06/01 12:46:18;;;;;;;5.00;1.60;;;;;;;;;;107111;1259;22542;-78
2023/06/01 12:48:47;;;;;;;8.50;2.00;;;;;;;;;;107173;1275;22555;-80
2023/06/01 12:51:18;;;;;;;5.30;1.60;;;;;;;;;;107094;1267;22743;-82
2023/06/01 12:53:47;;;;;;;5.70;1.80;;;;;;;;;;107314;1275;25566;-78
2023/06/01 12:56:15;;;;;;;8.70;1.70;;;;;;;;;;107301;1257;22539;-79
2023/06/01 12:58:43;;;;;;;8.40;2.00;;;;;;;;;;107298;1275;22634;-83
2023/06/01 13:01:20;;;;;;;6.50;1.80;;;;;;;;;;106998;1275;25500;-81
2023/06/01 13:03:47;;;;;;;5.70;1.90;;;;;;;;;;107078;1275;24315;-82
2023/06/01 13:06:17;;;;;;;7.90;1.90;;;;;;;;;;107049;1257;25330;-78
2023/06/01 13:08:44;;;;;;;6.30;1.90;;;;;;;;;;106851;1275;22480;-84
2023/06/01 13:11:11;;;;;;;7.70;2.00;;;;;;;;;;107121;1275;23361;-78
2023/06/01 13:13:40;;;;;;;6.70;2.00;;;;;;;;;;106901;1275;25284;-82
2023/06/01 13:16:13;;;;;;;7.00;1.60;;;;;;;;;;106921;1275;22646;-82
2023/06/01 13:18:51;;;;;;;8.00;2.00;;;;;;;;;;106915;1275;22518;-84
2023/06/01 13:21:20;;;;;;;6.50;1.80;;;;;;;;;;106920;1275;25278;-81
2023/06/01 13:23:52;;;;;;;4.90;1.70;;;;;;;;;;106936;1275;24226;-78
2023/06/01 13:26:22;;;;;;;6.20;1.90;;;;;;;;;;106900;1257;22521;-83
2023/06/01 13:28:48;;;;;;;5.40;1.90;;;;;;;;;;106988;1275;22587;-85
2023/06/01 13:31:15;;;;;;;6.40;1.90;;;;;;;;;;106951;1275;22530;-82
2023/06/01 13:33:43;;;;;;;5.60;2.20;;;;;;;;;;106914;1275;25502;-78
2023/06/01 13:36:23;;;;;;;8.70;2.30;;;;;;;;;;106924;1253;25291;-83
2023/06/01 13:39:10;;;;;;;6.90;2.40;;;;;;;;;;106974;1275;22513;-79
2023/06/01 13:44:46;;;;;;;9.00;2.50;;;;;;;;;;107105;1267;22557;-78
2023/06/01 13:47:16;;;;;;;7.40;2.60;;;;;;;;;;107197;1259;24240;-78
2023/06/01 13:49:43;;;;;;;7.90;2.40;;;;;;;;;;106954;1269;24230;-77
2023/06/01 13:52:30;;;;;;;6.60;2.50;;;;;;;;;;107126;1269;25466;-81
2023/06/01 13:55:00;;;;;;;8.20;2.50;;;;;;;;;;107019;1267;25363;-82
2023/06/01 13:57:31;;;;;;;7.70;2.80;;;;;;;;;;107007;1254;25437;-82
2023/06/01 14:00:03;;;;;;;6.20;2.60;;;;;;;;;;107070;1267;25159;-80
2023/06/01 14:02:49;;;;;;;9.80;2.50;;;;;;;;;;107033;1269;24253;-76
2023/06/01 14:05:20;;;;;;;5.30;2.20;;;;;;;;;;106952;1273;22524;-79
2023/06/01 14:07:55;;;;;;;7.20;2.60;;;;;;;;;;107029;1272;22520;-84
2023/06/01 14:10:35;;;;;;;5.80;2.30;;;;;;;;;;107034;1272;22506;-82
2023/06/01 14:13:05;;;;;;;6.60;2.60;;;;;;;;;;106957;1275;25328;-79
2023/06/01 14:15:36;;;;;;;7.70;2.50;;;;;;;;;;107168;1272;22518;-82
2023/06/01 14:18:06;;;;;;;7.70;2.40;;;;;;;;;;107182;1254;22554;-78
2023/06/01 14:20:50;;;;;;;;;;;;;;;;;;;;;
2023/06/01 14:23:22;;;;;;;6.70;2.90;;;;;;;;;;107189;1275;25347;-78
2023/06/01 14:25:49;;;;;;;6.70;2.50;;;;;;;;;;107046;1275;25381;-78
2023/06/01 14:28:29;;;;;;;6.70;3.00;;;;;;;;;;106921;1259;22560;-81
2023/06/01 14:30:56;;;;;;;6.20;2.70;;;;;;;;;;107146;1275;25691;-81
2023/06/01 14:33:44;;;;;;;9.00;2.80;;;;;;;;;;107119;1275;24247;-79
2023/06/01 14:36:27;;;;;;;7.50;2.80;;;;;;;;;;107152;1275;25315;-79
2023/06/01 14:39:00;;;;;;;7.80;3.10;;;;;;;;;;107079;1256;22516;-86
2023/06/01 14:41:32;;;;;;;8.20;2.60;;;;;;;;;;107112;1275;24314;-78
2023/06/01 14:44:06;;;;;;;8.90;2.80;;;;;;;;;;107083;1275;24209;-79
2023/06/01 14:46:40;;;;;;;7.90;2.90;;;;;;;;;;107087;1275;24698;-77
2023/06/01 14:49:15;;;;;;;7.50;2.70;;;;;;;;;;107198;1256;22510;-78
2023/06/01 14:51:45;;;;;;;10.70;2.90;;;;;;;;;;107078;1275;22483;-81
2023/06/01 14:54:12;;;;;;;8.30;2.70;;;;;;;;;;106982;1275;22557;-80
2023/06/01 14:56:48;;;;;;;7.40;2.90;;;;;;;;;;107046;1275;25214;-81
2023/06/01 14:59:23;;;;;;;7.60;3.20;;;;;;;;;;106941;1275;25377;-77
2023/06/01 15:01:50;;;;;;;9.30;3.10;;;;;;;;;;107047;1275;22523;-82
2023/06/01 15:04:20;;;;;;;7.40;2.90;;;;;;;;;;107027;1275;24196;-81
2023/06/01 15:06:55;;;;;;;7.30;2.80;;;;;;;;;;106943;1275;23858;-76
2023/06/01 15:09:22;;;;;;;7.20;2.40;;;;;;;;;;106996;1259;24198;-75
2023/06/01 15:11:49;;;;;;;7.20;2.90;;;;;;;;;;106931;1275;24559;-81
2023/06/01 15:14:19;;;;;;;7.70;2.80;;;;;;;;;;107102;1275;24194;-77
2023/06/01 15:16:45;;;;;;;5.80;2.80;;;;;;;;;;107293;1275;22484;-78
2023/06/01 15:19:12;;;;;;;7.30;2.80;;;;;;;;;;107208;1256;25353;-78
2023/06/01 15:21:39;;;;;;;7.80;2.60;;;;;;;;;;107166;1268;24187;-77
2023/06/01 15:24:06;;;;;;;7.00;2.50;;;;;;;;;;107181;1269;22514;-81
2023/06/01 15:26:37;;;;;;;9.20;3.10;;;;;;;;;;107209;1274;22633;-77
2023/06/01 15:29:07;;;;;;;7.10;2.70;;;;;;;;;;107307;1259;22515;-76
2023/06/01 15:31:36;;;;;;;6.70;2.80;;;;;;;;;;107262;1275;24251;-83
2023/06/01 15:34:05;;;;;;;8.20;3.00;;;;;;;;;;107028;1270;22726;-78
2023/06/01 15:36:36;;;;;;;6.70;3.20;;;;;;;;;;107021;1267;24177;-78
2023/06/01 15:39:03;;;;;;;6.60;2.60;;;;;;;;;;107197;1256;22523;-76
2023/06/01 15:41:31;;;;;;;8.40;2.80;;;;;;;;;;107226;1267;22579;-82
2023/06/01 15:43:59;;;;;;;7.20;2.60;;;;;;;;;;107163;1271;22989;-81
2023/06/01 15:46:26;;;;;;;9.20;2.90;;;;;;;;;;107146;1266;24382;-79
2023/06/01 15:48:56;;;;;;;9.60;2.80;;;;;;;;;;107296;1267;24167;-78
2023/06/01 15:51:24;;;;;;;9.70;3.10;;;;;;;;;;106907;1275;22647;-77
2023/06/01 15:53:51;;;;;;;6.60;2.60;;;;;;;;;;106955;1275;24345;-81
2023/06/01 15:56:21;;;;;;;9.20;2.70;;;;;;;;;;107060;1275;22654;-80
2023/06/01 15:58:49;;;;;;;6.80;2.50;;;;;;;;;;107050;1275;22590;-78
2023/06/01 16:01:17;;;;;;;5.80;2.50;;;;;;;;;;107028;1259;22599;-81
2023/06/01 16:03:44;;;;;;;7.70;3.00;;;;;;;;;;106919;1275;22510;-76
2023/06/01 16:06:11;;;;;;;8.50;3.10;;;;;;;;;;107149;1274;22480;-81
2023/06/01 16:08:38;;;;;;;7.50;2.80;;;;;;;;;;106963;1275;25315;-81
2023/06/01 16:11:07;;;;;;;7.30;2.70;;;;;;;;;;107146;1274;24308;-80
2023/06/01 16:13:34;;;;;;;6.30;2.50;;;;;;;;;;107057;1275;23132;-77
2023/06/01 16:16:01;;;;;;;7.00;2.90;;;;;;;;;;107025;1275;25317;-82